createdAt,value
2018-12-29T00:00:17.432Z,3.43
2018-12-29T00:01:17.425Z,3.39
2018-12-29T00:02:17.418Z,3.43
2018-12-29T00:03:17.412Z,3.50
2018-12-29T00:04:17.402Z,3.42
2018-12-29T00:05:17.401Z,3.40
2018-12-29T00:06:17.390Z,3.43
2018-12-29T00:07:17.382Z,3.46
2018-12-29T00:08:17.376Z,3.49
2018-12-29T00:09:17.368Z,3.43
2018-12-29T00:10:17.372Z,3.43
2018-12-29T00:11:17.356Z,3.43
2018-12-29T00:12:17.351Z,3.44
2018-12-29T00:13:17.339Z,3.40
2018-12-29T00:14:17.332Z,3.44
2018-12-29T00:15:17.324Z,3.42
2018-12-29T00:16:17.316Z,3.40
2018-12-29T00:17:17.315Z,3.46
2018-12-29T00:18:17.302Z,3.49
2018-12-29T00:19:17.320Z,3.40
2018-12-29T00:20:17.292Z,3.43
2018-12-29T00:21:17.282Z,3.44
2018-12-29T00:22:17.275Z,3.44
2018-12-29T00:23:17.292Z,3.43
2018-12-29T00:24:17.266Z,3.43
2018-12-29T00:25:17.263Z,3.43
2018-12-29T00:26:17.243Z,3.40
2018-12-29T00:27:17.236Z,3.43
2018-12-29T00:28:17.230Z,3.44
2018-12-29T00:29:17.253Z,3.53
2018-12-29T00:30:17.225Z,3.40
2018-12-29T00:31:17.210Z,3.54
2018-12-29T00:32:17.203Z,3.42
2018-12-29T00:33:17.216Z,3.53
2018-12-29T00:34:17.209Z,3.54
2018-12-29T00:35:17.206Z,3.49
2018-12-29T00:36:17.178Z,3.40
2018-12-29T00:37:17.192Z,3.49
2018-12-29T00:38:17.157Z,3.58
2018-12-29T00:39:17.161Z,3.57
2018-12-29T00:40:17.156Z,3.54
2018-12-29T00:41:17.171Z,3.58
2018-12-29T00:42:17.131Z,3.58
2018-12-29T00:43:17.151Z,3.60
2018-12-29T00:44:17.120Z,3.46
2018-12-29T00:45:17.138Z,3.54
2018-12-29T00:46:17.104Z,3.61
2018-12-29T00:47:17.092Z,3.54
2018-12-29T00:48:17.093Z,3.53
2018-12-29T00:49:17.106Z,3.57
2018-12-29T00:50:17.093Z,3.54
2018-12-29T00:51:17.068Z,3.47
2018-12-29T00:52:17.059Z,3.49
2018-12-29T00:53:17.057Z,3.60
2018-12-29T00:54:17.046Z,3.61
2018-12-29T00:55:17.036Z,3.53
2018-12-29T00:56:17.034Z,3.53
2018-12-29T00:57:17.027Z,3.54
2018-12-29T00:58:17.017Z,3.54
2018-12-29T00:59:17.038Z,3.57
2018-12-29T01:00:17.000Z,3.50
2018-12-29T01:01:16.995Z,3.54
2018-12-29T01:02:16.998Z,3.58
2018-12-29T01:03:16.983Z,3.65
2018-12-29T01:04:16.976Z,3.44
2018-12-29T01:05:16.968Z,3.60
2018-12-29T01:06:16.957Z,3.58
2018-12-29T01:07:16.955Z,3.54
2018-12-29T01:08:16.946Z,3.53
2018-12-29T01:09:16.966Z,3.49
2018-12-29T01:10:16.958Z,3.53
2018-12-29T01:11:16.926Z,3.53
2018-12-29T01:12:16.918Z,3.58
2018-12-29T01:13:16.908Z,3.52
2018-12-29T01:14:16.906Z,3.54
2018-12-29T01:15:16.931Z,3.58
2018-12-29T01:16:16.889Z,3.61
2018-12-29T01:17:16.883Z,3.60
2018-12-29T01:18:16.902Z,3.58
2018-12-29T01:19:16.870Z,3.60
2018-12-29T01:20:16.862Z,3.61
2018-12-29T01:21:16.882Z,3.65
2018-12-29T01:22:16.859Z,3.60
2018-12-29T01:23:16.844Z,3.67
2018-12-29T01:24:16.836Z,3.68
2018-12-29T01:25:16.836Z,3.65
2018-12-29T01:26:16.821Z,3.64
2018-12-29T01:27:16.818Z,3.71
2018-12-29T01:28:16.809Z,3.68
2018-12-29T01:29:16.817Z,3.75
2018-12-29T01:30:16.794Z,3.71
2018-12-29T01:31:16.810Z,3.79
2018-12-29T01:32:16.782Z,3.75
2018-12-29T01:33:16.776Z,3.72
2018-12-29T01:34:16.765Z,3.79
2018-12-29T01:35:16.770Z,3.72
2018-12-29T01:36:16.757Z,3.76
2018-12-29T01:37:16.747Z,3.71
2018-12-29T01:38:16.739Z,3.75
2018-12-29T01:39:16.730Z,3.76
2018-12-29T01:40:16.732Z,3.80
2018-12-29T01:41:16.716Z,3.83
2018-12-29T01:42:16.732Z,3.71
2018-12-29T01:43:16.710Z,3.83
2018-12-29T01:44:16.698Z,3.86
2018-12-29T01:45:17.661Z,3.86
2018-12-29T01:46:16.790Z,3.86
2018-12-29T01:47:16.681Z,3.83
2018-12-29T01:48:16.697Z,3.89
2018-12-29T01:49:16.692Z,4.00
2018-12-29T01:50:16.677Z,3.90
2018-12-29T01:51:16.650Z,3.94
2018-12-29T01:52:16.643Z,3.90
2018-12-29T01:53:16.639Z,3.88
2018-12-29T01:54:16.629Z,3.98
2018-12-29T01:55:16.672Z,3.98
2018-12-29T01:56:16.620Z,4.07
2018-12-29T01:57:16.625Z,4.04
2018-12-29T01:58:16.639Z,4.04
2018-12-29T01:59:16.596Z,4.06
2018-12-29T02:00:16.589Z,4.15
2018-12-29T02:01:16.582Z,4.04
2018-12-29T02:02:16.583Z,4.07
2018-12-29T02:03:16.573Z,4.06
2018-12-29T02:04:16.594Z,4.16
2018-12-29T02:05:16.560Z,4.15
2018-12-29T02:06:16.570Z,4.12
2018-12-29T02:07:16.544Z,4.16
2018-12-29T02:08:16.547Z,4.19
2018-12-29T02:09:16.531Z,4.14
2018-12-29T02:10:16.522Z,4.07
2018-12-29T02:11:16.529Z,4.19
2018-12-29T02:12:16.511Z,4.15
2018-12-29T02:13:16.505Z,4.12
2018-12-29T02:14:16.495Z,4.16
2018-12-29T02:15:16.519Z,4.21
2018-12-29T02:16:16.482Z,4.21
2018-12-29T02:17:16.482Z,4.15
2018-12-29T02:18:16.469Z,4.18
2018-12-29T02:19:16.465Z,4.15
2018-12-29T02:20:16.455Z,4.15
2018-12-29T02:21:16.454Z,4.21
2018-12-29T02:22:16.442Z,4.18
2018-12-29T02:23:16.437Z,4.18
2018-12-29T02:24:16.433Z,4.19
2018-12-29T02:25:16.421Z,4.14
2018-12-29T02:26:16.414Z,4.18
2018-12-29T02:27:16.417Z,4.21
2018-12-29T02:28:16.401Z,4.16
2018-12-29T02:29:16.394Z,4.15
2018-12-29T02:30:16.387Z,4.14
2018-12-29T02:31:16.381Z,4.15
2018-12-29T02:32:16.378Z,4.14
2018-12-29T02:33:16.371Z,4.19
2018-12-29T02:34:16.363Z,4.15
2018-12-29T02:35:16.353Z,4.08
2018-12-29T02:36:16.348Z,4.12
2018-12-29T02:37:16.364Z,4.06
2018-12-29T02:38:16.335Z,4.07
2018-12-29T02:39:16.326Z,4.08
2018-12-29T02:40:16.318Z,4.12
2018-12-29T02:41:16.317Z,4.08
2018-12-29T02:42:16.304Z,4.06
2018-12-29T02:43:16.324Z,4.03
2018-12-29T02:44:16.293Z,4.07
2018-12-29T02:45:16.285Z,4.15
2018-12-29T02:46:16.278Z,4.12
2018-12-29T02:47:16.279Z,4.08
2018-12-29T02:48:16.273Z,4.01
2018-12-29T02:49:16.259Z,4.01
2018-12-29T02:50:16.262Z,4.07
2018-12-29T02:51:16.244Z,4.12
2018-12-29T02:52:16.242Z,4.04
2018-12-29T02:53:16.231Z,3.98
2018-12-29T02:54:16.227Z,4.03
2018-12-29T02:55:16.214Z,4.04
2018-12-29T02:56:16.212Z,4.01
2018-12-29T02:57:16.218Z,3.97
2018-12-29T02:58:16.194Z,3.97
2018-12-29T02:59:16.196Z,4.01
2018-12-29T03:00:16.182Z,3.96
2018-12-29T03:01:16.200Z,3.96
2018-12-29T03:02:16.165Z,3.92
2018-12-29T03:03:16.168Z,3.85
2018-12-29T03:04:16.152Z,3.90
2018-12-29T03:05:16.155Z,3.86
2018-12-29T03:06:16.143Z,3.92
2018-12-29T03:07:16.132Z,3.90
2018-12-29T03:08:16.125Z,3.89
2018-12-29T03:09:16.127Z,3.83
2018-12-29T03:10:16.109Z,3.85
2018-12-29T03:11:16.103Z,3.76
2018-12-29T03:12:16.096Z,3.83
2018-12-29T03:13:16.091Z,3.76
2018-12-29T03:14:16.084Z,3.76
2018-12-29T03:15:16.075Z,3.72
2018-12-29T03:16:16.068Z,3.75
2018-12-29T03:17:16.082Z,3.68
2018-12-29T03:18:16.069Z,3.67
2018-12-29T03:19:16.051Z,3.71
2018-12-29T03:20:16.039Z,3.70
2018-12-29T03:21:16.234Z,3.71
2018-12-29T03:22:16.091Z,3.71
2018-12-29T03:23:16.032Z,3.62
2018-12-29T03:24:16.017Z,3.58
2018-12-29T03:25:16.013Z,3.60
2018-12-29T03:26:16.003Z,3.64
2018-12-29T03:27:16.051Z,3.64
2018-12-29T03:28:15.981Z,3.60
2018-12-29T03:29:15.976Z,3.57
2018-12-29T03:30:15.974Z,3.60
2018-12-29T03:31:15.978Z,3.57
2018-12-29T03:32:15.989Z,3.60
2018-12-29T03:33:15.954Z,3.44
2018-12-29T03:34:15.940Z,3.52
2018-12-29T03:35:15.932Z,3.61
2018-12-29T03:36:15.923Z,3.58
2018-12-29T03:37:15.918Z,3.54
2018-12-29T03:38:15.910Z,3.46
2018-12-29T03:39:15.935Z,3.44
2018-12-29T03:40:15.915Z,3.42
2018-12-29T03:41:15.889Z,3.47
2018-12-29T03:42:15.880Z,3.44
2018-12-29T03:43:15.872Z,3.42
2018-12-29T03:44:15.864Z,3.43
2018-12-29T03:45:15.874Z,3.33
2018-12-29T03:46:15.851Z,3.42
2018-12-29T03:47:15.845Z,3.49
2018-12-29T03:48:15.854Z,3.44
2018-12-29T03:49:15.856Z,3.46
2018-12-29T03:50:15.843Z,3.42
2018-12-29T03:51:15.814Z,3.43
2018-12-29T03:52:15.813Z,3.50
2018-12-29T03:53:15.802Z,3.40
2018-12-29T03:54:15.826Z,3.44
2018-12-29T03:55:15.810Z,3.42
2018-12-29T03:56:15.781Z,3.43
2018-12-29T03:57:15.781Z,3.40
2018-12-29T03:58:15.763Z,3.43
2018-12-29T03:59:15.756Z,3.40
2018-12-29T04:00:15.747Z,3.50
2018-12-29T04:01:15.743Z,3.46
2018-12-29T04:02:15.731Z,3.44
2018-12-29T04:03:15.723Z,3.42
2018-12-29T04:04:15.717Z,3.36
2018-12-29T04:05:15.709Z,3.44
2018-12-29T04:06:15.706Z,3.44
2018-12-29T04:07:15.704Z,3.42
2018-12-29T04:08:15.700Z,3.43
2018-12-29T04:09:15.684Z,3.47
2018-12-29T04:10:15.678Z,3.42
2018-12-29T04:11:15.682Z,3.47
2018-12-29T04:12:15.659Z,3.60
2018-12-29T04:13:15.654Z,3.46
2018-12-29T04:14:15.644Z,3.58
2018-12-29T04:15:15.637Z,3.53
2018-12-29T04:16:15.628Z,3.57
2018-12-29T04:17:15.622Z,3.43
2018-12-29T04:18:15.614Z,3.57
2018-12-29T04:19:15.608Z,3.54
2018-12-29T04:20:15.600Z,3.60
2018-12-29T04:21:15.593Z,3.54
2018-12-29T04:22:15.587Z,3.60
2018-12-29T04:23:15.576Z,3.58
2018-12-29T04:24:15.592Z,3.64
2018-12-29T04:25:15.564Z,3.60
2018-12-29T04:26:15.555Z,3.65
2018-12-29T04:27:15.577Z,3.67
2018-12-29T04:28:15.580Z,3.65
2018-12-29T04:29:15.535Z,3.64
2018-12-29T04:30:15.527Z,3.65
2018-12-29T04:31:15.525Z,3.58
2018-12-29T04:32:15.536Z,3.65
2018-12-29T04:33:15.533Z,3.65
2018-12-29T04:34:15.498Z,3.62
2018-12-29T04:35:15.490Z,3.62
2018-12-29T04:36:15.486Z,3.57
2018-12-29T04:37:15.477Z,3.53
2018-12-29T04:38:15.466Z,3.54
2018-12-29T04:39:15.461Z,3.60
2018-12-29T04:40:15.454Z,3.60
2018-12-29T04:41:15.446Z,3.57
2018-12-29T04:42:15.439Z,3.58
2018-12-29T04:43:15.435Z,3.57
2018-12-29T04:44:15.425Z,3.58
2018-12-29T04:45:15.418Z,3.46
2018-12-29T04:46:15.410Z,3.53
2018-12-29T04:47:15.403Z,3.50
2018-12-29T04:48:15.396Z,3.58
2018-12-29T04:49:15.393Z,3.53
2018-12-29T04:50:15.389Z,3.64
2018-12-29T04:51:15.378Z,3.60
2018-12-29T04:52:15.374Z,3.60
2018-12-29T04:53:15.360Z,3.57
2018-12-29T04:54:15.351Z,3.53
2018-12-29T04:55:15.344Z,3.61
2018-12-29T04:56:15.336Z,3.57
2018-12-29T04:57:15.336Z,3.57
2018-12-29T04:58:15.333Z,3.50
2018-12-29T04:59:15.315Z,3.57
2018-12-29T05:00:15.309Z,3.53
2018-12-29T05:01:15.299Z,3.64
2018-12-29T05:02:15.293Z,3.58
2018-12-29T05:03:15.285Z,3.62
2018-12-29T05:04:15.279Z,3.60
2018-12-29T05:05:15.283Z,3.65
2018-12-29T05:06:15.264Z,3.65
2018-12-29T05:07:15.255Z,3.67
2018-12-29T05:08:15.249Z,3.60
2018-12-29T05:09:15.242Z,3.65
2018-12-29T05:10:15.234Z,3.64
2018-12-29T05:11:15.228Z,3.61
2018-12-29T05:12:23.324Z,3.62
2018-12-29T05:14:08.584Z,3.58
2018-12-29T05:15:08.478Z,3.62
2018-12-29T05:17:01.457Z,3.65
2018-12-29T05:18:01.162Z,3.62
2018-12-29T05:19:54.753Z,3.61
2018-12-29T05:20:54.737Z,3.57
2018-12-29T05:22:47.585Z,3.64
2018-12-29T05:23:47.577Z,3.60
2018-12-29T05:25:40.997Z,3.58
2018-12-29T05:26:41.005Z,3.60
2018-12-29T05:28:33.837Z,3.62
2018-12-29T05:29:33.562Z,3.53
2018-12-29T05:31:27.187Z,3.60
2018-12-29T05:32:26.921Z,3.53
2018-12-29T05:33:27.199Z,3.57
2018-12-29T05:34:27.127Z,3.62
2018-12-29T05:35:27.101Z,3.57
2018-12-29T05:36:27.070Z,3.57
2018-12-29T05:37:27.145Z,3.52
2018-12-29T05:38:27.161Z,3.58
2018-12-29T05:39:27.142Z,3.57
2018-12-29T05:40:26.957Z,3.54
2018-12-29T05:41:27.109Z,3.60
2018-12-29T05:42:27.040Z,3.68
2018-12-29T05:43:27.094Z,3.60
2018-12-29T05:44:27.074Z,3.53
2018-12-29T05:45:27.498Z,3.52
2018-12-29T05:46:27.078Z,3.57
2018-12-29T05:47:27.036Z,3.57
2018-12-29T05:48:27.052Z,3.57
2018-12-29T05:49:26.999Z,3.57
2018-12-29T05:50:27.005Z,3.54
2018-12-29T05:51:26.823Z,3.46
2018-12-29T05:52:26.995Z,3.53
2018-12-29T05:53:26.972Z,3.47
2018-12-29T05:54:26.898Z,3.53
2018-12-29T05:55:27.022Z,3.52
2018-12-29T05:56:26.983Z,3.61
2018-12-29T05:57:27.009Z,3.61
2018-12-29T05:58:26.905Z,3.58
2018-12-29T05:59:26.934Z,3.49
2018-12-29T06:00:26.998Z,3.44
2018-12-29T06:01:26.947Z,3.54
2018-12-29T06:02:27.390Z,3.58
2018-12-29T06:03:26.903Z,3.61
2018-12-29T06:04:26.904Z,3.54
2018-12-29T06:05:26.919Z,3.49
2018-12-29T06:06:26.984Z,3.60
2018-12-29T06:07:26.934Z,3.54
2018-12-29T06:08:26.921Z,3.50
2018-12-29T06:09:26.904Z,3.43
2018-12-29T06:10:26.791Z,3.47
2018-12-29T06:11:27.416Z,3.58
2018-12-29T06:12:26.853Z,3.57
2018-12-29T06:13:27.619Z,3.42
2018-12-29T06:14:26.825Z,3.54
2018-12-29T06:15:27.380Z,3.54
2018-12-29T06:16:27.962Z,3.57
2018-12-29T06:17:26.855Z,3.44
2018-12-29T06:18:26.877Z,3.54
2018-12-29T06:19:27.379Z,3.54
2018-12-29T06:20:26.866Z,3.60
2018-12-29T06:21:27.286Z,3.62
2018-12-29T06:22:26.776Z,3.61
2018-12-29T06:23:26.834Z,3.60
2018-12-29T06:24:27.711Z,3.44
2018-12-29T06:25:28.407Z,3.60
2018-12-29T06:26:28.187Z,3.57
2018-12-29T06:27:27.249Z,3.57
2018-12-29T06:28:28.185Z,3.53
2018-12-29T06:29:27.598Z,3.46
2018-12-29T06:30:27.827Z,3.44
2018-12-29T06:31:26.733Z,3.43
2018-12-29T06:32:26.538Z,3.40
2018-12-29T06:33:26.464Z,3.42
2018-12-29T06:34:28.105Z,3.44
2018-12-29T06:35:37.393Z,3.44
2018-12-29T06:36:35.719Z,3.44
2018-12-29T06:37:57.951Z,3.44
2018-12-29T06:38:57.871Z,3.42
2018-12-29T06:40:55.388Z,3.43
2018-12-29T06:41:55.223Z,3.40
2018-12-29T06:42:54.208Z,3.42
2018-12-29T06:43:54.782Z,3.39
2018-12-29T06:44:54.811Z,3.40
2018-12-29T06:45:55.849Z,3.43
2018-12-29T06:46:54.721Z,3.44
2018-12-29T06:47:54.744Z,3.40
2018-12-29T06:48:54.741Z,3.40
2018-12-29T06:49:54.196Z,3.39
2018-12-29T06:50:54.156Z,3.42
2018-12-29T06:51:54.114Z,3.47
2018-12-29T06:52:54.487Z,3.43
2018-12-29T06:53:54.174Z,3.43
2018-12-29T06:54:54.072Z,3.52
2018-12-29T06:55:54.225Z,3.50
2018-12-29T06:56:54.050Z,3.43
2018-12-29T06:57:53.757Z,3.53
2018-12-29T06:58:53.845Z,3.46
2018-12-29T06:59:53.733Z,3.46
2018-12-29T07:00:54.620Z,3.43
2018-12-29T07:01:54.080Z,3.43
2018-12-29T07:02:54.115Z,3.43
2018-12-29T07:03:55.103Z,3.42
2018-12-29T07:04:54.545Z,3.46
2018-12-29T07:05:55.812Z,3.43
2018-12-29T07:06:54.081Z,3.43
2018-12-29T07:07:54.036Z,3.43
2018-12-29T07:08:53.597Z,3.44
2018-12-29T07:09:53.692Z,3.47
2018-12-29T07:10:53.667Z,3.42
2018-12-29T07:11:53.589Z,3.54
2018-12-29T07:12:54.510Z,3.57
2018-12-29T07:13:53.600Z,3.60
2018-12-29T07:14:53.648Z,3.53
2018-12-29T07:15:53.557Z,3.61
2018-12-29T07:16:53.562Z,3.58
2018-12-29T07:17:53.527Z,3.57
2018-12-29T07:18:53.577Z,3.57
2018-12-29T07:19:53.621Z,3.54
2018-12-29T07:20:53.534Z,3.58
2018-12-29T07:21:53.585Z,3.61
2018-12-29T07:22:53.591Z,3.67
2018-12-29T07:23:53.566Z,3.61
2018-12-29T07:24:53.511Z,3.64
2018-12-29T07:25:53.478Z,3.72
2018-12-29T07:26:53.487Z,3.75
2018-12-29T07:27:53.461Z,3.76
2018-12-29T07:28:53.492Z,3.76
2018-12-29T07:29:53.477Z,3.78
2018-12-29T07:30:53.445Z,3.72
2018-12-29T07:31:53.448Z,3.76
2018-12-29T07:32:53.414Z,3.79
2018-12-29T07:33:53.409Z,3.78
2018-12-29T07:34:53.422Z,3.83
2018-12-29T07:35:53.410Z,3.79
2018-12-29T07:36:53.399Z,3.72
2018-12-29T07:37:53.415Z,3.68
2018-12-29T07:38:53.409Z,3.68
2018-12-29T07:39:53.389Z,3.68
2018-12-29T07:40:53.407Z,3.70
2018-12-29T07:41:53.353Z,3.72
2018-12-29T07:42:53.333Z,3.58
2018-12-29T07:43:53.377Z,3.68
2018-12-29T07:44:53.335Z,3.58
2018-12-29T07:45:53.316Z,3.70
2018-12-29T07:46:53.317Z,3.65
2018-12-29T07:47:53.323Z,3.61
2018-12-29T07:48:55.856Z,3.65
2018-12-29T07:49:53.304Z,3.58
2018-12-29T07:50:53.312Z,3.62
2018-12-29T07:51:53.289Z,3.57
2018-12-29T07:52:53.276Z,3.57
2018-12-29T07:53:53.323Z,3.70
2018-12-29T07:54:53.240Z,3.65
2018-12-29T07:55:53.258Z,3.54
2018-12-29T07:56:53.470Z,3.68
2018-12-29T07:57:53.212Z,3.64
2018-12-29T07:58:53.234Z,3.60
2018-12-29T07:59:53.197Z,3.65
2018-12-29T08:00:53.200Z,3.71
2018-12-29T08:01:53.215Z,3.76
2018-12-29T08:02:53.174Z,3.76
2018-12-29T08:03:53.170Z,3.71
2018-12-29T08:04:53.190Z,3.71
2018-12-29T08:05:53.155Z,3.86
2018-12-29T08:06:53.149Z,3.90
2018-12-29T08:07:53.185Z,3.94
2018-12-29T08:08:53.171Z,3.98
2018-12-29T08:09:53.158Z,4.00
2018-12-29T08:10:53.121Z,4.04
2018-12-29T08:11:53.114Z,3.94
2018-12-29T08:12:53.108Z,4.10
2018-12-29T08:13:53.137Z,4.12
2018-12-29T08:14:53.124Z,4.14
2018-12-29T08:15:53.113Z,4.15
2018-12-29T08:16:56.862Z,4.08
2018-12-29T08:17:53.079Z,4.22
2018-12-29T08:18:53.164Z,4.21
2018-12-29T08:19:53.133Z,4.22
2018-12-29T08:20:53.059Z,4.24
2018-12-29T08:21:53.081Z,4.19
2018-12-29T08:22:53.075Z,4.21
2018-12-29T08:23:53.075Z,4.21
2018-12-29T08:24:53.027Z,4.28
2018-12-29T08:25:53.048Z,4.28
2018-12-29T08:26:53.074Z,4.26
2018-12-29T08:27:53.040Z,4.29
2018-12-29T08:28:53.027Z,4.34
2018-12-29T08:29:53.020Z,4.40
2018-12-29T08:30:52.990Z,4.40
2018-12-29T08:31:53.140Z,4.50
2018-12-29T08:32:53.041Z,4.42
2018-12-29T08:33:53.027Z,4.43
2018-12-29T08:34:52.997Z,4.40
2018-12-29T08:35:53.083Z,4.46
2018-12-29T08:36:53.035Z,4.46
2018-12-29T08:37:52.972Z,4.55
2018-12-29T08:38:52.939Z,4.55
2018-12-29T08:39:52.975Z,4.51
2018-12-29T08:40:52.960Z,4.52
2018-12-29T08:41:52.976Z,4.50
2018-12-29T08:42:52.918Z,4.57
2018-12-29T08:43:52.967Z,4.47
2018-12-29T08:44:52.904Z,4.51
2018-12-29T08:45:52.920Z,4.59
2018-12-29T08:46:52.906Z,4.52
2018-12-29T08:47:53.015Z,4.43
2018-12-29T08:48:52.940Z,4.44
2018-12-29T08:49:52.868Z,4.44
2018-12-29T08:50:52.857Z,4.51
2018-12-29T08:51:52.871Z,4.52
2018-12-29T08:52:52.884Z,4.57
2018-12-29T08:53:52.914Z,4.46
2018-12-29T08:54:52.852Z,4.52
2018-12-29T08:55:52.864Z,4.44
2018-12-29T08:56:52.858Z,4.44
2018-12-29T08:57:52.848Z,4.43
2018-12-29T08:58:52.852Z,4.44
2018-12-29T08:59:52.811Z,4.54
2018-12-29T09:00:52.806Z,4.46
2018-12-29T09:01:52.794Z,4.55
2018-12-29T09:02:52.803Z,4.39
2018-12-29T09:03:52.804Z,4.52
2018-12-29T09:04:52.805Z,4.52
2018-12-29T09:05:52.784Z,4.44
2018-12-29T09:06:52.763Z,4.43
2018-12-29T09:07:52.772Z,4.51
2018-12-29T09:08:52.746Z,4.47
2018-12-29T09:09:52.760Z,4.52
2018-12-29T09:10:52.781Z,4.51
2018-12-29T09:11:52.777Z,4.50
2018-12-29T09:12:52.798Z,4.59
2018-12-29T09:13:52.785Z,4.54
2018-12-29T09:14:52.775Z,4.52
2018-12-29T09:15:52.776Z,4.57
2018-12-29T09:16:52.765Z,4.65
2018-12-29T09:17:52.729Z,4.67
2018-12-29T09:18:52.682Z,4.67
2018-12-29T09:19:52.717Z,4.72
2018-12-29T09:20:52.721Z,4.77
2018-12-29T09:21:52.681Z,4.79
2018-12-29T09:22:52.654Z,4.79
2018-12-29T09:23:52.648Z,4.80
2018-12-29T09:24:52.675Z,4.73
2018-12-29T09:25:52.632Z,4.64
2018-12-29T09:26:52.629Z,4.69
2018-12-29T09:27:52.647Z,4.62
2018-12-29T09:28:52.644Z,4.54
2018-12-29T09:29:52.626Z,4.64
2018-12-29T09:30:52.602Z,4.54
2018-12-29T09:31:52.601Z,4.54
2018-12-29T09:32:52.611Z,4.55
2018-12-29T09:33:52.608Z,4.46
2018-12-29T09:34:52.614Z,4.51
2018-12-29T09:35:52.587Z,4.44
2018-12-29T09:36:52.591Z,4.43
2018-12-29T09:37:52.556Z,4.40
2018-12-29T09:38:52.579Z,4.40
2018-12-29T09:39:52.563Z,4.33
2018-12-29T09:40:52.539Z,4.46
2018-12-29T09:41:52.552Z,4.46
2018-12-29T09:42:52.543Z,4.46
2018-12-29T09:43:52.519Z,4.47
2018-12-29T09:44:52.534Z,4.50
2018-12-29T09:45:52.505Z,4.46
2018-12-29T09:46:52.496Z,4.57
2018-12-29T09:47:52.504Z,4.46
2018-12-29T09:48:52.506Z,4.55
2018-12-29T09:49:52.480Z,4.51
2018-12-29T09:50:52.471Z,4.51
2018-12-29T09:51:52.488Z,4.51
2018-12-29T09:52:52.457Z,4.62
2018-12-29T09:53:52.457Z,4.65
2018-12-29T09:54:52.481Z,4.62
2018-12-29T09:55:52.446Z,4.65
2018-12-29T09:56:52.433Z,4.67
2018-12-29T09:57:52.428Z,4.79
2018-12-29T09:58:52.416Z,4.80
2018-12-29T09:59:52.414Z,4.79
2018-12-29T10:00:52.406Z,4.79
2018-12-29T10:01:52.431Z,4.77
2018-12-29T10:02:52.393Z,4.73
2018-12-29T10:03:52.392Z,4.79
2018-12-29T10:04:52.383Z,4.75
2018-12-29T10:05:52.375Z,4.79
2018-12-29T10:06:52.393Z,4.83
2018-12-29T10:07:52.362Z,4.79
2018-12-29T10:08:52.356Z,4.86
2018-12-29T10:09:52.351Z,4.91
2018-12-29T10:10:52.350Z,4.95
2018-12-29T10:11:52.348Z,4.91
2018-12-29T10:12:52.330Z,5.07
2018-12-29T10:13:52.326Z,5.04
2018-12-29T10:14:52.320Z,5.12
2018-12-29T10:15:52.311Z,5.12
2018-12-29T10:16:52.312Z,5.12
2018-12-29T10:17:52.301Z,5.04
2018-12-29T10:18:52.295Z,5.16
2018-12-29T10:19:52.291Z,5.09
2018-12-29T10:20:52.282Z,5.12
2018-12-29T10:21:52.293Z,5.14
2018-12-29T10:22:52.282Z,5.16
2018-12-29T10:23:52.264Z,5.27
2018-12-29T10:24:52.257Z,5.22
2018-12-29T10:25:52.253Z,5.27
2018-12-29T10:26:52.246Z,5.20
2018-12-29T10:27:52.239Z,5.28
2018-12-29T10:28:52.236Z,5.23
2018-12-29T10:29:52.256Z,5.34
2018-12-29T10:30:52.236Z,5.30
2018-12-29T10:31:52.238Z,5.32
2018-12-29T10:32:52.212Z,5.45
2018-12-29T10:33:52.205Z,5.77
2018-12-29T10:34:52.203Z,5.89
2018-12-29T10:35:52.196Z,5.91
2018-12-29T10:36:52.189Z,5.91
2018-12-29T10:37:52.182Z,5.88
2018-12-29T10:38:52.196Z,5.96
2018-12-29T10:39:52.173Z,6.06
2018-12-29T10:40:52.168Z,6.13
2018-12-29T10:41:52.164Z,6.13
2018-12-29T10:42:52.158Z,6.36
2018-12-29T10:43:52.161Z,6.18
2018-12-29T10:44:52.150Z,6.16
2018-12-29T10:45:52.143Z,6.18
2018-12-29T10:46:52.138Z,6.33
2018-12-29T10:47:52.135Z,6.50
2018-12-29T10:48:52.129Z,6.54
2018-12-29T10:49:52.128Z,6.63
2018-12-29T10:50:52.124Z,6.95
2018-12-29T10:51:52.117Z,7.02
2018-12-29T10:52:52.225Z,7.05
2018-12-29T10:53:52.111Z,6.97
2018-12-29T10:54:52.110Z,6.84
2018-12-29T10:55:52.105Z,6.81
2018-12-29T10:56:52.103Z,6.63
2018-12-29T10:57:52.097Z,6.59
2018-12-29T10:58:52.100Z,6.59
2018-12-29T10:59:52.099Z,6.51
2018-12-29T11:00:52.099Z,6.58
2018-12-29T11:01:52.096Z,6.62
2018-12-29T11:02:52.084Z,6.65
2018-12-29T11:03:52.082Z,6.72
2018-12-29T11:04:52.077Z,6.80
2018-12-29T11:05:52.071Z,6.79
2018-12-29T11:06:52.070Z,6.83
2018-12-29T11:07:52.064Z,6.86
2018-12-29T11:08:52.062Z,6.91
2018-12-29T11:09:52.056Z,6.83
2018-12-29T11:10:52.064Z,6.99
2018-12-29T11:11:52.054Z,6.94
2018-12-29T11:12:52.047Z,7.01
2018-12-29T11:13:52.053Z,7.13
2018-12-29T11:14:52.041Z,7.09
2018-12-29T11:15:52.035Z,7.17
2018-12-29T11:16:52.034Z,7.04
2018-12-29T11:17:52.049Z,7.01
2018-12-29T11:18:52.026Z,6.95
2018-12-29T11:19:52.020Z,6.83
2018-12-29T11:20:52.017Z,6.81
2018-12-29T11:21:52.012Z,6.84
2018-12-29T11:22:52.008Z,6.79
2018-12-29T11:23:52.002Z,6.73
2018-12-29T11:24:52.001Z,6.61
2018-12-29T11:25:51.998Z,6.59
2018-12-29T11:26:51.992Z,6.48
2018-12-29T11:27:52.004Z,6.53
2018-12-29T11:28:51.987Z,6.44
2018-12-29T11:29:51.983Z,6.30
2018-12-29T11:30:51.985Z,6.43
2018-12-29T11:31:51.971Z,6.33
2018-12-29T11:32:51.968Z,6.13
2018-12-29T11:33:51.965Z,6.06
2018-12-29T11:34:51.956Z,5.88
2018-12-29T11:35:51.953Z,5.82
2018-12-29T11:36:51.948Z,5.75
2018-12-29T11:37:51.945Z,5.70
2018-12-29T11:38:51.943Z,5.68
2018-12-29T11:39:51.933Z,5.66
2018-12-29T11:40:51.932Z,5.60
2018-12-29T11:41:51.962Z,5.63
2018-12-29T11:42:51.918Z,5.52
2018-12-29T11:43:51.920Z,5.48
2018-12-29T11:44:51.920Z,5.43
2018-12-29T11:45:51.909Z,5.38
2018-12-29T11:46:51.896Z,5.32
2018-12-29T11:47:51.897Z,5.13
2018-12-29T11:48:51.885Z,5.12
2018-12-29T11:49:51.884Z,5.19
2018-12-29T11:50:51.875Z,5.10
2018-12-29T11:51:51.875Z,5.10
2018-12-29T11:52:51.864Z,5.10
2018-12-29T11:53:51.863Z,5.17
2018-12-29T11:54:51.850Z,5.12
2018-12-29T11:55:51.852Z,5.13
2018-12-29T11:56:51.841Z,5.10
2018-12-29T11:57:51.836Z,5.10
2018-12-29T11:58:51.830Z,5.09
2018-12-29T11:59:51.822Z,5.14
2018-12-29T12:00:51.817Z,5.14
2018-12-29T12:01:51.818Z,5.09
2018-12-29T12:02:51.805Z,5.14
2018-12-29T12:03:51.803Z,5.02
2018-12-29T12:04:51.794Z,5.05
2018-12-29T12:05:51.787Z,5.07
2018-12-29T12:06:51.781Z,5.07
2018-12-29T12:07:51.774Z,5.07
2018-12-29T12:08:51.768Z,4.99
2018-12-29T12:09:51.764Z,4.94
2018-12-29T12:10:51.758Z,5.04
2018-12-29T12:11:51.763Z,4.92
2018-12-29T12:12:51.765Z,5.02
2018-12-29T12:13:51.738Z,5.09
2018-12-29T12:14:51.733Z,5.12
2018-12-29T12:15:51.722Z,5.07
2018-12-29T12:16:51.720Z,5.02
2018-12-29T12:17:57.416Z,5.04
2018-12-29T12:18:51.705Z,4.95
2018-12-29T12:19:51.705Z,4.91
2018-12-29T12:20:51.692Z,4.89
2018-12-29T12:21:51.690Z,4.91
2018-12-29T12:22:51.684Z,4.83
2018-12-29T12:23:51.674Z,4.88
2018-12-29T12:24:51.670Z,4.88
2018-12-29T12:25:53.279Z,4.84
2018-12-29T12:26:51.654Z,4.89
2018-12-29T12:27:51.669Z,4.91
2018-12-29T12:28:51.646Z,4.89
2018-12-29T12:29:51.635Z,4.88
2018-12-29T12:30:51.636Z,4.92
2018-12-29T12:31:51.627Z,4.91
2018-12-29T12:32:51.614Z,4.96
2018-12-29T12:33:51.611Z,4.91
2018-12-29T12:34:51.617Z,4.89
2018-12-29T12:35:51.598Z,4.94
2018-12-29T12:36:51.600Z,4.94
2018-12-29T12:37:51.591Z,4.91
2018-12-29T12:38:51.577Z,4.80
2018-12-29T12:39:51.569Z,4.79
2018-12-29T12:40:51.567Z,4.77
2018-12-29T12:41:51.561Z,4.76
2018-12-29T12:42:51.552Z,4.70
2018-12-29T12:43:51.545Z,4.70
2018-12-29T12:44:51.537Z,4.67
2018-12-29T12:45:51.533Z,4.69
2018-12-29T12:46:51.524Z,4.62
2018-12-29T12:47:51.538Z,4.70
2018-12-29T12:48:51.512Z,4.67
2018-12-29T12:49:51.505Z,4.65
2018-12-29T12:50:51.500Z,4.50
2018-12-29T12:51:51.489Z,4.54
2018-12-29T12:52:51.484Z,4.50
2018-12-29T12:53:51.494Z,4.46
2018-12-29T12:54:51.473Z,4.39
2018-12-29T12:55:51.466Z,4.43
2018-12-29T12:56:51.458Z,4.50
2018-12-29T12:57:51.466Z,4.44
2018-12-29T12:58:51.443Z,4.39
2018-12-29T12:59:51.470Z,4.44
2018-12-29T13:00:51.439Z,4.36
2018-12-29T13:01:51.424Z,4.29
2018-12-29T13:02:51.416Z,4.34
2018-12-29T13:03:51.410Z,4.34
2018-12-29T13:04:51.413Z,4.28
2018-12-29T13:05:51.397Z,4.33
2018-12-29T13:06:51.401Z,4.33
2018-12-29T13:07:51.390Z,4.33
2018-12-29T13:08:51.378Z,4.34
2018-12-29T13:09:51.368Z,4.26
2018-12-29T13:10:51.361Z,4.25
2018-12-29T13:11:51.356Z,4.36
2018-12-29T13:12:51.348Z,4.34
2018-12-29T13:13:51.343Z,4.28
2018-12-29T13:14:51.352Z,4.33
2018-12-29T13:15:51.324Z,4.39
2018-12-29T13:16:51.318Z,4.37
2018-12-29T13:17:51.312Z,4.42
2018-12-29T13:18:51.306Z,4.42
2018-12-29T13:19:51.300Z,4.28
2018-12-29T13:20:51.297Z,4.46
2018-12-29T13:21:51.287Z,4.47
2018-12-29T13:22:51.276Z,4.51
2018-12-29T13:23:51.273Z,4.44
2018-12-29T13:24:51.267Z,4.36
2018-12-29T13:25:51.259Z,4.37